createdAt,value
2018-10-09T00:00:06.434Z,16.83
2018-10-09T00:02:34.897Z,15.70
2018-10-09T00:05:03.442Z,18.00
2018-10-09T00:07:31.969Z,17.80
2018-10-09T00:10:00.434Z,16.50
2018-10-09T00:12:28.907Z,17.20
2018-10-09T00:14:57.367Z,14.57
2018-10-09T00:17:25.824Z,16.33
2018-10-09T00:19:54.541Z,16.57
2018-10-09T00:22:23.615Z,16.27
2018-10-09T00:24:52.079Z,16.30
2018-10-09T00:27:20.548Z,16.17
2018-10-09T00:29:49.074Z,14.27
2018-10-09T00:32:17.537Z,15.40
2018-10-09T00:34:46.004Z,13.87
2018-10-09T00:37:14.459Z,17.73
2018-10-09T00:39:42.906Z,15.37
2018-10-09T00:42:11.424Z,16.43
2018-10-09T00:44:39.959Z,15.77
2018-10-09T00:47:08.459Z,14.27
2018-10-09T00:49:36.939Z,16.80
2018-10-09T00:52:05.407Z,14.00
2018-10-09T00:54:33.863Z,15.80
2018-10-09T00:57:02.345Z,14.97
2018-10-09T00:59:30.877Z,16.60
2018-10-09T01:01:59.450Z,15.20
2018-10-09T01:04:27.922Z,14.13
2018-10-09T01:06:56.418Z,13.37
2018-10-09T01:09:24.884Z,14.00
2018-10-09T01:11:53.354Z,14.43
2018-10-09T01:14:21.806Z,14.00
2018-10-09T01:16:50.262Z,16.40
2018-10-09T01:19:18.787Z,16.70
2018-10-09T01:21:47.258Z,17.17
2018-10-09T01:24:15.726Z,18.00
2018-10-09T01:26:44.194Z,19.27
2018-10-09T01:29:13.606Z,19.70
2018-10-09T01:31:42.060Z,17.50
2018-10-09T01:34:10.533Z,17.43
2018-10-09T01:36:38.997Z,15.80
2018-10-09T01:39:08.802Z,17.50
2018-10-09T01:41:37.263Z,16.53
2018-10-09T01:44:05.967Z,18.70
2018-10-09T01:46:34.538Z,18.50
2018-10-09T01:49:03.003Z,19.90
2018-10-09T01:51:31.654Z,18.87
2018-10-09T01:54:00.308Z,19.57
2018-10-09T01:56:28.779Z,20.10
2018-10-09T01:58:57.266Z,19.87
2018-10-09T02:01:25.726Z,19.33
2018-10-09T02:03:54.195Z,18.33
2018-10-09T02:06:22.670Z,19.03
2018-10-09T02:08:51.131Z,19.47
2018-10-09T02:11:19.604Z,20.30
2018-10-09T02:13:48.045Z,17.00
2018-10-09T02:16:16.746Z,16.87
2018-10-09T02:18:45.210Z,17.10
2018-10-09T02:21:13.667Z,15.53
2018-10-09T02:23:42.154Z,17.60
2018-10-09T02:26:10.610Z,15.20
2018-10-09T02:28:39.046Z,17.53
2018-10-09T02:31:07.520Z,15.80
2018-10-09T02:33:36.124Z,17.40
2018-10-09T02:36:04.458Z,18.13
2018-10-09T02:38:32.927Z,14.87
2018-10-09T02:41:01.410Z,17.20
2018-10-09T02:43:29.898Z,17.40
2018-10-09T02:45:58.370Z,17.00
2018-10-09T02:48:26.839Z,16.97
2018-10-09T02:50:55.298Z,16.60
2018-10-09T02:53:23.762Z,19.17
2018-10-09T02:55:52.234Z,19.13
2018-10-09T02:58:20.694Z,20.50
2018-10-09T03:00:49.142Z,20.30
2018-10-09T03:03:17.634Z,18.73
2018-10-09T03:05:46.078Z,21.17
2018-10-09T03:08:14.546Z,19.20
2018-10-09T03:10:43.041Z,18.73
2018-10-09T03:13:11.510Z,15.70
2018-10-09T03:15:39.963Z,18.90
2018-10-09T03:18:08.610Z,16.97
2018-10-09T03:20:37.173Z,19.20
2018-10-09T03:23:05.586Z,15.47
2018-10-09T03:25:34.055Z,15.40
2018-10-09T03:28:02.524Z,15.97
2018-10-09T03:30:31.051Z,15.33
2018-10-09T03:32:59.531Z,16.07
2018-10-09T03:35:27.989Z,14.40
2018-10-09T03:37:56.474Z,14.40
2018-10-09T03:40:24.946Z,15.30
2018-10-09T03:42:53.401Z,16.40
2018-10-09T03:45:21.950Z,14.53
2018-10-09T03:47:50.398Z,14.47
2018-10-09T03:50:18.862Z,14.93
2018-10-09T03:52:47.317Z,13.90
2018-10-09T03:55:15.858Z,15.60
2018-10-09T03:57:44.327Z,17.70
2018-10-09T04:00:20.675Z,14.80
2018-10-09T04:02:49.123Z,14.83
2018-10-09T04:05:17.606Z,15.30
2018-10-09T04:07:46.061Z,21.47
2018-10-09T04:10:14.515Z,19.27
2018-10-09T04:12:43.026Z,23.20
2018-10-09T04:15:11.594Z,19.20
2018-10-09T04:17:40.063Z,18.00
2018-10-09T04:20:08.888Z,17.93
2018-10-09T04:22:37.349Z,17.20
2018-10-09T04:25:06.640Z,19.37
2018-10-09T04:27:35.090Z,21.50
2018-10-09T04:30:03.731Z,21.70
2018-10-09T04:32:32.246Z,19.40
2018-10-09T04:35:00.718Z,17.60
2018-10-09T04:37:29.181Z,17.40
2018-10-09T04:39:57.637Z,19.50
2018-10-09T04:42:26.108Z,15.70
2018-10-09T04:44:54.619Z,19.87
2018-10-09T04:47:23.078Z,21.37
2018-10-09T04:49:51.532Z,15.43
2018-10-09T04:52:20.008Z,16.63
2018-10-09T04:54:48.463Z,14.80
2018-10-09T04:57:17.003Z,16.47
2018-10-09T04:59:45.483Z,14.67
2018-10-09T05:02:13.962Z,15.47
2018-10-09T05:04:42.431Z,16.90
2018-10-09T05:07:10.934Z,16.63
2018-10-09T05:09:39.391Z,18.77
2018-10-09T05:12:07.865Z,18.63
2018-10-09T05:14:36.319Z,20.53
2018-10-09T05:17:04.786Z,21.20
2018-10-09T05:19:33.254Z,20.30
2018-10-09T05:22:01.707Z,20.00
2018-10-09T05:24:30.176Z,19.80
2018-10-09T05:26:58.646Z,18.23
2018-10-09T05:29:27.149Z,15.97
2018-10-09T05:31:55.695Z,16.37
2018-10-09T05:34:24.183Z,15.73
2018-10-09T05:36:52.634Z,15.97
2018-10-09T05:39:21.087Z,15.60
2018-10-09T05:41:49.575Z,22.00
2018-10-09T05:44:18.069Z,13.50
2018-10-09T05:46:46.507Z,14.20
2018-10-09T05:49:14.950Z,12.77
2018-10-09T05:51:43.415Z,11.70
2018-10-09T05:54:11.883Z,13.50
2018-10-09T05:56:40.334Z,11.37
2018-10-09T05:59:08.794Z,14.27
2018-10-09T06:01:37.259Z,16.63
2018-10-09T06:04:05.714Z,17.33
2018-10-09T06:06:34.158Z,18.73
2018-10-09T06:09:02.656Z,20.00
2018-10-09T06:11:31.147Z,16.80
2018-10-09T06:13:59.706Z,17.40
2018-10-09T06:16:28.150Z,16.40
2018-10-09T06:18:56.601Z,16.60
2018-10-09T06:21:25.055Z,17.73
2018-10-09T06:23:53.515Z,17.13
2018-10-09T06:26:21.986Z,16.87
2018-10-09T06:28:50.435Z,17.20
2018-10-09T06:31:18.916Z,16.83
2018-10-09T06:33:47.430Z,17.33
2018-10-09T06:36:15.879Z,15.53
2018-10-09T06:38:44.326Z,16.57
2018-10-09T06:41:12.803Z,17.90
2018-10-09T06:43:41.254Z,16.20
2018-10-09T06:46:09.782Z,16.67
2018-10-09T06:48:38.238Z,17.10
2018-10-09T06:51:06.716Z,18.10
2018-10-09T06:53:35.207Z,16.90
2018-10-09T06:56:03.659Z,16.37
2018-10-09T06:58:32.175Z,17.60
2018-10-09T07:01:00.643Z,16.80
2018-10-09T07:03:29.174Z,16.53
2018-10-09T07:05:57.695Z,16.67
2018-10-09T07:08:26.162Z,16.07
2018-10-09T07:10:54.646Z,16.17
2018-10-09T07:13:23.157Z,17.23
2018-10-09T07:15:51.631Z,17.03
2018-10-09T07:18:20.123Z,15.47
2018-10-09T07:20:48.588Z,17.47
2018-10-09T07:23:17.082Z,16.83
2018-10-09T07:25:45.555Z,16.67
2018-10-09T07:28:14.052Z,16.20
2018-10-09T07:30:42.590Z,16.77
2018-10-09T07:33:11.055Z,15.27
2018-10-09T07:35:39.518Z,13.90
2018-10-09T07:38:07.998Z,13.40
2018-10-09T07:40:36.475Z,13.20
2018-10-09T07:43:04.968Z,13.03
2018-10-09T07:45:33.494Z,12.80
2018-10-09T07:48:01.977Z,12.93
2018-10-09T07:50:30.484Z,14.07
2018-10-09T07:52:59.025Z,14.10
2018-10-09T07:55:27.439Z,13.90
2018-10-09T07:57:55.910Z,13.93
2018-10-09T08:00:24.586Z,14.30
2018-10-09T08:02:53.052Z,13.80
2018-10-09T08:05:21.535Z,13.83
2018-10-09T08:07:49.994Z,13.87
2018-10-09T08:10:18.535Z,14.30
2018-10-09T08:12:46.966Z,12.87
2018-10-09T08:15:15.485Z,13.10
2018-10-09T08:17:43.963Z,12.57
2018-10-09T08:20:12.430Z,12.63
2018-10-09T08:22:41.076Z,13.20
2018-10-09T08:25:09.490Z,13.20
2018-10-09T08:27:37.995Z,12.37
2018-10-09T08:30:06.971Z,13.50
2018-10-09T08:32:35.455Z,12.80
2018-10-09T08:35:04.351Z,13.23
2018-10-09T08:37:32.875Z,14.30
2018-10-09T08:40:01.445Z,14.07
2018-10-09T08:42:29.851Z,14.87
2018-10-09T08:44:58.341Z,16.33
2018-10-09T08:47:26.794Z,16.90
2018-10-09T08:49:55.265Z,15.53
2018-10-09T08:52:23.724Z,16.40
2018-10-09T08:54:52.190Z,17.97
2018-10-09T08:57:20.662Z,16.17
2018-10-09T08:59:49.139Z,16.63
2018-10-09T09:02:17.622Z,13.70
2018-10-09T09:04:46.086Z,14.73
2018-10-09T09:07:14.549Z,14.47
2018-10-09T09:09:43.149Z,17.07
2018-10-09T09:12:11.547Z,16.13
2018-10-09T09:14:40.002Z,15.73
2018-10-09T09:17:08.496Z,16.20
2018-10-09T09:19:36.999Z,16.63
2018-10-09T09:22:05.570Z,14.77
2018-10-09T09:24:34.023Z,14.03
2018-10-09T09:27:02.794Z,13.77
2018-10-09T09:29:31.214Z,13.40
2018-10-09T09:31:59.741Z,14.30
2018-10-09T09:34:28.226Z,14.60
2018-10-09T09:36:56.690Z,14.30
2018-10-09T09:39:25.159Z,13.80
2018-10-09T09:41:53.639Z,13.97
2018-10-09T09:44:22.103Z,13.70
2018-10-09T09:46:50.599Z,13.70
2018-10-09T09:49:19.080Z,14.20
2018-10-09T09:51:47.548Z,13.80
2018-10-09T09:54:16.016Z,14.50
2018-10-09T09:56:44.491Z,14.30
2018-10-09T09:59:13.114Z,13.70
2018-10-09T10:01:42.747Z,13.40
2018-10-09T10:04:12.030Z,12.87
2018-10-09T10:06:40.498Z,14.43
2018-10-09T10:09:09.774Z,12.70
2018-10-09T10:11:38.262Z,13.00
2018-10-09T10:14:07.199Z,13.53
2018-10-09T10:16:35.691Z,14.33
2018-10-09T10:19:04.167Z,14.20
2018-10-09T10:21:32.695Z,14.50
2018-10-09T10:24:01.172Z,14.37
2018-10-09T10:26:29.675Z,15.00
2018-10-09T10:28:58.156Z,13.53
2018-10-09T10:31:26.619Z,14.27
2018-10-09T10:33:55.086Z,13.40
2018-10-09T10:36:23.645Z,13.53
2018-10-09T10:38:52.087Z,13.73
2018-10-09T10:41:20.550Z,13.43
2018-10-09T10:43:49.011Z,14.40
2018-10-09T10:46:17.467Z,14.33
2018-10-09T10:48:58.338Z,15.07
2018-10-09T10:51:27.198Z,14.93
2018-10-09T10:53:55.826Z,15.63
2018-10-09T10:56:24.417Z,13.90
2018-10-09T10:58:52.911Z,14.80
2018-10-09T11:01:21.426Z,14.83
2018-10-09T11:03:49.870Z,14.57
2018-10-09T11:06:18.337Z,13.33
2018-10-09T11:08:47.507Z,15.60
2018-10-09T11:11:16.038Z,17.23
2018-10-09T11:13:44.498Z,16.63
2018-10-09T11:16:12.960Z,15.77
2018-10-09T11:18:41.430Z,15.10
2018-10-09T11:21:09.933Z,16.43
2018-10-09T11:23:38.684Z,17.03
2018-10-09T11:26:07.260Z,16.57
2018-10-09T11:28:35.755Z,16.47
2018-10-09T11:31:04.218Z,15.50
2018-10-09T11:33:32.685Z,14.90
2018-10-09T11:36:01.150Z,14.87
2018-10-09T11:38:29.707Z,13.63
2018-10-09T11:40:58.214Z,14.50
2018-10-09T11:43:26.679Z,14.93
2018-10-09T11:45:55.143Z,14.33
2018-10-09T11:48:23.627Z,14.17
2018-10-09T11:50:52.111Z,15.10
2018-10-09T11:53:20.604Z,16.17
2018-10-09T11:55:49.071Z,16.80
2018-10-09T11:58:17.527Z,16.77
2018-10-09T12:00:47.494Z,17.77
2018-10-09T12:03:15.979Z,15.43
2018-10-09T12:05:44.472Z,15.50
2018-10-09T12:08:12.932Z,16.50
2018-10-09T12:10:41.493Z,17.50
2018-10-09T12:13:09.947Z,16.40
2018-10-09T12:15:38.421Z,15.67
2018-10-09T12:18:06.975Z,15.70
2018-10-09T12:20:35.462Z,15.90
2018-10-09T12:23:03.950Z,14.90
2018-10-09T12:25:32.498Z,16.03
2018-10-09T12:28:00.963Z,17.20
2018-10-09T12:30:29.435Z,17.30
2018-10-09T12:32:57.969Z,18.60
2018-10-09T12:35:26.390Z,17.40
2018-10-09T12:37:54.846Z,18.77
2018-10-09T12:40:23.318Z,16.80
2018-10-09T12:42:51.786Z,16.17
2018-10-09T12:45:20.263Z,16.10
2018-10-09T12:47:48.742Z,15.97
2018-10-09T12:50:17.228Z,16.93
2018-10-09T12:52:45.746Z,15.27
2018-10-09T12:55:14.269Z,15.83
2018-10-09T12:57:42.750Z,17.77
2018-10-09T13:00:11.387Z,16.47
2018-10-09T13:02:39.847Z,16.47
2018-10-09T13:05:08.337Z,15.33
2018-10-09T13:07:36.864Z,18.73
2018-10-09T13:10:05.494Z,15.93
2018-10-09T13:12:33.979Z,16.13
2018-10-09T13:15:02.613Z,14.77
2018-10-09T13:17:31.115Z,15.30
2018-10-09T13:19:59.577Z,16.90
2018-10-09T13:22:28.320Z,16.03
2018-10-09T13:24:56.522Z,17.27
2018-10-09T13:27:25.039Z,16.67
2018-10-09T13:29:53.503Z,15.77
2018-10-09T13:32:21.960Z,17.73
2018-10-09T13:34:50.414Z,17.57
2018-10-09T13:37:18.908Z,16.50
2018-10-09T13:39:47.391Z,15.77
2018-10-09T13:42:15.863Z,16.53
2018-10-09T13:44:44.369Z,16.40
2018-10-09T13:47:12.967Z,16.87
2018-10-09T13:49:41.338Z,15.80
2018-10-09T13:52:09.846Z,15.20
2018-10-09T13:54:38.318Z,16.77
2018-10-09T13:57:07.118Z,16.83
2018-10-09T13:59:35.553Z,18.17
2018-10-09T14:02:04.046Z,17.27
2018-10-09T14:04:32.510Z,18.37
2018-10-09T14:07:00.981Z,19.63
2018-10-09T14:09:29.438Z,16.80
2018-10-09T14:11:57.915Z,16.10
2018-10-09T14:14:26.382Z,17.47
2018-10-09T14:16:54.855Z,18.40
2018-10-09T14:19:23.327Z,18.73
2018-10-09T14:21:51.792Z,18.70
2018-10-09T14:24:20.254Z,16.20
2018-10-09T14:26:48.719Z,17.70
2018-10-09T14:29:17.179Z,17.60
2018-10-09T14:31:45.643Z,17.87
2018-10-09T14:34:14.115Z,18.77
2018-10-09T14:36:42.591Z,17.63
2018-10-09T14:39:11.055Z,18.03
2018-10-09T14:41:39.565Z,22.07
2018-10-09T14:44:08.129Z,21.53
2018-10-09T14:46:36.570Z,23.17
2018-10-09T14:49:05.076Z,22.60
2018-10-09T14:51:33.530Z,19.40
2018-10-09T14:54:01.999Z,18.63
2018-10-09T14:56:30.493Z,19.70
2018-10-09T14:58:58.960Z,18.37
2018-10-09T15:01:27.450Z,17.57
2018-10-09T15:03:55.922Z,18.47
2018-10-09T15:06:24.531Z,18.17
2018-10-09T15:08:54.365Z,17.70
2018-10-09T15:11:22.841Z,18.80
2018-10-09T15:13:51.302Z,18.33
2018-10-09T15:16:19.775Z,17.90
2018-10-09T15:18:48.234Z,18.53
2018-10-09T15:21:16.690Z,17.90
2018-10-09T15:23:45.162Z,18.10
2018-10-09T15:26:13.626Z,19.10
2018-10-09T15:28:42.083Z,17.77
2018-10-09T15:31:10.543Z,17.70
2018-10-09T15:33:39.031Z,18.23
2018-10-09T15:36:07.530Z,18.23
2018-10-09T15:38:36.007Z,18.70
2018-10-09T15:41:04.530Z,18.37
2018-10-09T15:43:33.061Z,19.87
2018-10-09T15:46:01.563Z,18.80
2018-10-09T15:48:30.057Z,17.57
2018-10-09T15:50:58.559Z,18.70
2018-10-09T15:53:27.019Z,17.93
2018-10-09T15:55:55.502Z,17.60
2018-10-09T15:58:24.060Z,20.10
2018-10-09T16:00:52.487Z,18.80
2018-10-09T16:03:20.998Z,18.60
2018-10-09T16:05:49.470Z,19.17
2018-10-09T16:08:17.947Z,20.50
2018-10-09T16:10:46.427Z,21.20
2018-10-09T16:13:14.890Z,21.33
2018-10-09T16:15:43.371Z,20.30
2018-10-09T16:18:11.841Z,19.60
2018-10-09T16:20:40.430Z,19.40
2018-10-09T16:23:08.870Z,21.40
2018-10-09T16:25:37.359Z,20.50
2018-10-09T16:28:05.960Z,19.70
2018-10-09T16:30:34.518Z,18.90
2018-10-09T16:33:03.007Z,20.83
2018-10-09T16:35:31.555Z,19.80
2018-10-09T16:38:00.019Z,22.20
2018-10-09T16:40:28.527Z,23.17
2018-10-09T16:42:56.954Z,22.17
2018-10-09T16:45:25.462Z,21.97
2018-10-09T16:47:53.938Z,23.30
2018-10-09T16:50:22.406Z,21.80
2018-10-09T16:52:51.104Z,21.93
2018-10-09T16:55:19.568Z,23.27
2018-10-09T16:57:48.042Z,22.17
2018-10-09T17:00:16.585Z,21.27
2018-10-09T17:02:45.012Z,22.23
2018-10-09T17:05:13.511Z,21.60
2018-10-09T17:07:41.978Z,21.73
2018-10-09T17:10:10.467Z,22.07
2018-10-09T17:12:38.931Z,23.57
2018-10-09T17:15:07.462Z,23.67
2018-10-09T17:17:36.027Z,22.10
2018-10-09T17:20:06.020Z,22.07
2018-10-09T17:22:34.486Z,21.30
2018-10-09T17:25:03.089Z,23.70
2018-10-09T17:27:31.584Z,21.90
2018-10-09T17:30:00.051Z,24.27
2018-10-09T17:32:28.577Z,26.63
2018-10-09T17:34:57.031Z,25.37
2018-10-09T17:37:25.493Z,25.57
2018-10-09T17:39:54.039Z,26.30
2018-10-09T17:42:22.494Z,26.47
2018-10-09T17:44:50.947Z,27.57
2018-10-09T17:47:19.403Z,28.30
2018-10-09T17:49:47.880Z,28.23
2018-10-09T17:52:16.339Z,29.27
2018-10-09T17:54:44.815Z,27.40
2018-10-09T17:57:13.358Z,30.23
2018-10-09T17:59:41.823Z,27.73
2018-10-09T18:02:10.330Z,29.60
2018-10-09T18:04:38.790Z,28.13
2018-10-09T18:07:07.310Z,27.37
2018-10-09T18:09:35.774Z,28.63
2018-10-09T18:12:04.299Z,25.57
2018-10-09T18:14:32.828Z,25.97
2018-10-09T18:17:01.319Z,27.53
2018-10-09T18:19:29.790Z,29.30
2018-10-09T18:21:58.262Z,31.90
2018-10-09T18:24:26.728Z,31.27
2018-10-09T18:26:55.201Z,30.77
2018-10-09T18:29:23.662Z,29.67
2018-10-09T18:31:53.066Z,28.20
2018-10-09T18:34:21.534Z,27.60
2018-10-09T18:36:50.002Z,26.23
2018-10-09T18:39:18.466Z,26.30
2018-10-09T18:41:47.398Z,25.20
2018-10-09T18:44:16.115Z,25.80
2018-10-09T18:46:44.578Z,27.60
2018-10-09T18:49:13.038Z,28.93
2018-10-09T18:51:41.611Z,31.90
2018-10-09T18:54:09.966Z,34.00
2018-10-09T18:56:38.698Z,35.17
2018-10-09T18:59:07.174Z,30.43
2018-10-09T19:01:35.711Z,31.83
2018-10-09T19:04:04.231Z,30.30
2018-10-09T19:06:32.774Z,28.83
2018-10-09T19:09:01.242Z,28.60
2018-10-09T19:11:29.771Z,28.90
2018-10-09T19:13:59.153Z,30.60
2018-10-09T19:16:27.703Z,31.40
2018-10-09T19:18:56.171Z,32.03
2018-10-09T19:21:24.629Z,33.77
2018-10-09T19:23:53.120Z,32.57
2018-10-09T19:26:21.604Z,33.07
2018-10-09T19:28:50.158Z,35.00
2018-10-09T19:31:19.416Z,35.67
2018-10-09T19:33:47.996Z,35.37
2018-10-09T19:36:16.551Z,34.63
2018-10-09T19:38:45.028Z,31.40
2018-10-09T19:41:13.666Z,34.40
2018-10-09T19:43:42.160Z,33.47
2018-10-09T19:46:10.643Z,30.83
2018-10-09T19:48:39.119Z,31.00
2018-10-09T19:51:07.710Z,33.20
2018-10-09T19:53:36.607Z,32.70
2018-10-09T19:56:05.636Z,30.60
2018-10-09T19:58:34.146Z,31.80
2018-10-09T20:01:02.650Z,32.00
2018-10-09T20:03:31.142Z,27.20
2018-10-09T20:05:59.614Z,27.97
2018-10-09T20:08:28.074Z,28.43
2018-10-09T20:10:56.556Z,25.67
2018-10-09T20:13:25.020Z,26.70
2018-10-09T20:15:53.487Z,25.87
2018-10-09T20:18:21.967Z,27.37
2018-10-09T20:20:50.554Z,28.90
2018-10-09T20:23:18.899Z,26.77
2018-10-09T20:25:47.354Z,29.40
2018-10-09T20:28:15.839Z,29.07
2018-10-09T20:30:44.310Z,31.40
2018-10-09T20:33:12.811Z,29.70
2018-10-09T20:35:41.258Z,31.70
2018-10-09T20:38:09.711Z,34.33
2018-10-09T20:40:38.190Z,31.47
2018-10-09T20:43:06.663Z,33.13
2018-10-09T20:45:35.135Z,35.97
2018-10-09T20:48:03.611Z,34.87
2018-10-09T20:50:32.170Z,36.53
2018-10-09T20:53:00.639Z,32.50
2018-10-09T20:55:29.106Z,31.43
2018-10-09T20:57:57.575Z,30.23
2018-10-09T21:00:26.052Z,31.93
2018-10-09T21:02:54.582Z,33.60
2018-10-09T21:05:23.171Z,31.07
2018-10-09T21:07:51.603Z,33.47
2018-10-09T21:10:20.070Z,32.03
2018-10-09T21:12:48.543Z,32.43
2018-10-09T21:15:16.995Z,33.10
2018-10-09T21:17:45.539Z,32.07
2018-10-09T21:20:13.939Z,30.30
2018-10-09T21:22:42.406Z,30.90
2018-10-09T21:25:10.867Z,32.27
2018-10-09T21:27:39.330Z,28.70
2018-10-09T21:30:07.838Z,27.93
2018-10-09T21:32:36.306Z,26.67
2018-10-09T21:35:04.918Z,24.40
2018-10-09T21:37:33.394Z,25.63
2018-10-09T21:40:01.863Z,25.00
2018-10-09T21:42:30.319Z,25.20
2018-10-09T21:44:58.787Z,28.53
2018-10-09T21:47:27.247Z,27.43
2018-10-09T21:49:55.726Z,30.73
2018-10-09T21:52:24.187Z,32.47
2018-10-09T21:54:52.655Z,35.83
2018-10-09T21:57:21.126Z,33.37
2018-10-09T21:59:49.652Z,29.90
2018-10-09T22:02:18.162Z,28.90
2018-10-09T22:04:46.643Z,27.20
2018-10-09T22:07:16.435Z,29.63
2018-10-09T22:09:45.083Z,29.67
2018-10-09T22:12:13.814Z,28.57
2018-10-09T22:14:42.290Z,30.13
2018-10-09T22:17:10.826Z,31.60
2018-10-09T22:19:39.394Z,31.07
2018-10-09T22:22:07.890Z,33.50
2018-10-09T22:24:36.367Z,34.33
2018-10-09T22:27:04.894Z,36.50
2018-10-09T22:29:33.419Z,34.83
2018-10-09T22:32:01.903Z,39.27
2018-10-09T22:34:30.511Z,36.77
2018-10-09T22:36:59.002Z,34.97
2018-10-09T22:39:27.463Z,31.00
2018-10-09T22:41:55.932Z,28.87
2018-10-09T22:44:24.391Z,27.23
2018-10-09T22:46:52.851Z,28.37
2018-10-09T22:49:21.831Z,26.90
2018-10-09T22:51:50.302Z,30.77
2018-10-09T22:54:18.754Z,28.77
2018-10-09T22:56:47.224Z,28.97
2018-10-09T22:59:15.682Z,31.57
2018-10-09T23:01:44.152Z,31.43
2018-10-09T23:04:12.626Z,32.90
2018-10-09T23:06:41.130Z,36.20
2018-10-09T23:09:11.243Z,33.93
2018-10-09T23:11:39.766Z,32.57
2018-10-09T23:14:08.271Z,31.33
2018-10-09T23:16:37.210Z,30.23
2018-10-09T23:19:05.735Z,30.37
2018-10-09T23:21:34.223Z,31.13
2018-10-09T23:24:02.679Z,36.60
2018-10-09T23:26:31.157Z,29.77
2018-10-09T23:28:59.614Z,31.20
2018-10-09T23:31:28.078Z,31.87
2018-10-09T23:33:56.543Z,29.80
2018-10-09T23:36:25.008Z,29.60
2018-10-09T23:38:53.487Z,30.80
2018-10-09T23:41:21.958Z,29.90
2018-10-09T23:43:50.443Z,28.33
2018-10-09T23:46:18.899Z,30.40
2018-10-09T23:48:47.374Z,31.50
2018-10-09T23:51:15.862Z,34.17
2018-10-09T23:53:44.332Z,35.37
2018-10-09T23:56:12.815Z,36.00
2018-10-09T23:58:41.327Z,35.63
